Terminal Aerodrome Forecast
Issued by NWS Green Bay, WI

Home | Current Version | Previous Version | Text Only | Print | Product List | Glossary On
Versions: 1 2 3 4 5 6 7 8 9 10 11 12 13 14 15
000
FTUS43 KGRB 212336
TAFGRB
TAF
KGRB 212336Z 2200/2224 17010KT P6SM BKN070 WS010/19035KT
     FM221100 18009KT P6SM -SHRA OVC040
     FM221400 20010G15KT 5SM -SHRA OVC019
     FM221700 23007KT P6SM -SHRA OVC013
     FM222200 31006KT P6SM SCT025=

USA.gov is the U.S. government's official web portal to all federal, state and local government web resources and services.